Time;durP1;ratioP1;P1;durP2;ratioP2;P2;SDS_P1;SDS_P2;PMS_P1;PMS_P2;Temp;Humidity;BMP_temperature;BMP_pressure;BME280_temperature;BME280_humidity;BME280_pressure;Samples;Min_cycle;Max_cycle;Signal;HPM_P1;HPM_P2
2022/05/22 00:00:00;;;;;;;7.00;5.10;;;16.60;99.90;;;;;;5052909;28;21202;-75
2022/05/22 00:02:27;;;;;;;6.23;5.10;;;16.60;99.90;;;;;;5073351;28;20598;-75
2022/05/22 00:04:52;;;;;;;8.00;4.30;;;16.50;99.90;;;;;;5073310;28;20649;-75
2022/05/22 00:07:18;;;;;;;9.00;4.90;;;16.50;99.90;;;;;;5073287;28;20175;-75
2022/05/22 00:09:44;;;;;;;5.70;4.00;;;16.50;99.90;;;;;;5071893;28;20190;-75
2022/05/22 00:12:11;;;;;;;6.27;4.60;;;16.50;99.90;;;;;;5054208;28;20623;-75
2022/05/22 00:14:38;;;;;;;7.13;5.30;;;16.50;99.90;;;;;;5035420;28;20559;-75
2022/05/22 00:17:06;;;;;;;5.87;4.47;;;16.50;99.90;;;;;;5053025;28;20567;-75
2022/05/22 00:19:32;;;;;;;9.60;4.80;;;16.50;99.90;;;;;;5052309;28;20555;-75
2022/05/22 00:21:58;;;;;;;9.37;4.53;;;16.50;99.90;;;;;;5068877;28;20633;-75
2022/05/22 00:24:26;;;;;;;5.83;3.97;;;16.50;99.90;;;;;;5054810;28;21106;-75
2022/05/22 00:26:52;;;;;;;8.73;5.47;;;16.50;99.90;;;;;;5054969;28;20973;-75
2022/05/22 00:29:19;;;;;;;6.10;4.83;;;16.50;99.90;;;;;;5072203;28;20562;-75
2022/05/22 00:31:46;;;;;;;6.20;5.30;;;16.50;99.90;;;;;;5040087;28;20689;-76
2022/05/22 00:34:12;;;;;;;7.73;5.17;;;16.50;99.90;;;;;;5035802;28;20591;-74
2022/05/22 00:36:38;;;;;;;6.93;4.70;;;16.50;99.90;;;;;;5035748;28;20666;-75
2022/05/22 00:39:04;;;;;;;8.60;4.43;;;16.50;99.90;;;;;;5054399;28;20570;-75
2022/05/22 00:41:31;;;;;;;5.30;4.63;;;16.50;99.90;;;;;;5053983;28;20607;-75
2022/05/22 00:43:57;;;;;;;6.63;4.30;;;16.50;99.90;;;;;;5054668;28;20169;-75
2022/05/22 00:46:24;;;;;;;6.03;4.60;;;16.50;99.90;;;;;;5053998;28;20555;-75
2022/05/22 00:49:01;;;;;;;5.00;4.27;;;16.50;99.90;;;;;;5036517;28;20576;-74
2022/05/22 00:51:59;;;;;;;9.17;5.03;;;16.50;99.90;;;;;;5017523;28;20639;-74
2022/05/22 00:54:34;;;;;;;5.53;4.13;;;16.50;99.90;;;;;;5034859;28;20583;-75
2022/05/22 00:57:13;;;;;;;6.93;4.47;;;16.50;99.90;;;;;;5034462;28;20563;-77
2022/05/22 00:59:46;;;;;;;5.27;4.23;;;16.50;99.90;;;;;;5053281;28;20587;-75
2022/05/22 01:02:15;;;;;;;6.40;4.03;;;16.50;99.90;;;;;;5034683;28;20618;-74
2022/05/22 01:04:42;;;;;;;6.93;3.93;;;16.50;99.90;;;;;;5052256;28;20579;-74
2022/05/22 01:07:09;;;;;;;5.40;3.77;;;16.50;99.90;;;;;;5018401;28;20676;-75
2022/05/22 01:09:35;;;;;;;4.70;3.60;;;16.50;99.90;;;;;;5043200;28;20649;-74
2022/05/22 01:12:17;;;;;;;6.97;4.00;;;16.40;99.90;;;;;;5032290;28;20208;-75
2022/05/22 01:14:47;;;;;;;8.57;3.70;;;16.40;99.90;;;;;;5027180;28;20586;-74
2022/05/22 01:17:14;;;;;;;4.60;4.05;;;16.40;99.90;;;;;;5025028;28;20595;-75
2022/05/22 01:19:40;;;;;;;6.23;4.17;;;16.40;99.90;;;;;;5058813;28;20162;-75
2022/05/22 01:22:09;;;;;;;4.20;3.60;;;16.40;99.90;;;;;;5033621;28;20189;-75
2022/05/22 01:24:37;;;;;;;4.90;3.87;;;16.40;99.90;;;;;;5033965;28;20568;-75
2022/05/22 01:27:07;;;;;;;7.20;4.10;;;16.40;99.90;;;;;;5034030;28;20907;-75
2022/05/22 01:29:46;;;;;;;6.80;3.93;;;16.40;99.90;;;;;;5006784;28;20852;-75
2022/05/22 01:32:13;;;;;;;6.67;3.90;;;16.40;99.90;;;;;;5071759;28;20715;-74
2022/05/22 01:34:42;;;;;;;6.90;4.10;;;16.30;99.90;;;;;;5053761;28;20573;-75
2022/05/22 01:37:09;;;;;;;7.00;4.40;;;16.30;99.90;;;;;;5053580;28;20658;-75
2022/05/22 01:39:36;;;;;;;3.60;2.70;;;16.30;99.90;;;;;;5033563;28;20175;-75
2022/05/22 01:42:02;;;;;;;4.40;3.30;;;16.30;99.90;;;;;;5034037;28;20200;-75
2022/05/22 01:44:28;;;;;;;5.85;3.67;;;16.20;99.90;;;;;;5051338;28;20169;-75
2022/05/22 01:46:54;;;;;;;4.13;3.00;;;16.20;99.90;;;;;;5033973;28;20167;-75
2022/05/22 01:49:23;;;;;;;4.53;3.20;;;16.10;99.90;;;;;;5050085;28;20614;-75
2022/05/22 01:51:50;;;;;;;4.35;3.33;;;16.10;99.90;;;;;;5053188;28;20627;-75
2022/05/22 01:54:15;;;;;;;6.37;3.87;;;16.10;99.90;;;;;;5053505;28;20160;-74
2022/05/22 01:56:42;;;;;;;5.20;3.40;;;16.00;99.90;;;;;;5037174;28;20616;-75
2022/05/22 01:59:09;;;;;;;3.70;3.00;;;16.00;99.90;;;;;;5037948;28;20678;-75
2022/05/22 02:01:38;;;;;;;4.10;3.23;;;16.00;99.90;;;;;;5033472;28;20599;-75
2022/05/22 02:04:06;;;;;;;4.65;3.38;;;15.90;99.90;;;;;;5017430;28;21095;-75
2022/05/22 02:08:18;;;;;;;6.28;3.45;;;15.90;99.90;;;;;;5033332;28;20172;-75
2022/05/22 02:09:26;;;;;;;6.00;3.10;;;15.80;99.90;;;;;;5025288;28;20191;-75
2022/05/22 02:11:51;;;;;;;5.70;3.57;;;15.80;99.90;;;;;;5050215;28;20623;-75
2022/05/22 02:14:17;;;;;;;3.77;3.37;;;15.80;99.90;;;;;;5033712;28;20173;-75
2022/05/22 02:16:47;;;;;;;3.92;2.83;;;15.70;99.90;;;;;;5033523;28;20169;-75
2022/05/22 02:19:13;;;;;;;5.87;3.27;;;15.70;99.90;;;;;;5065293;28;20241;-75
2022/05/22 02:21:39;;;;;;;7.37;3.77;;;15.70;99.90;;;;;;5053128;28;20191;-75
2022/05/22 02:24:05;;;;;;;5.17;3.40;;;15.70;99.90;;;;;;5037218;28;20172;-75
2022/05/22 02:26:31;;;;;;;3.60;3.20;;;15.60;99.90;;;;;;5053297;28;20233;-75
2022/05/22 02:28:57;;;;;;;5.13;3.40;;;15.60;99.90;;;;;;5023758;28;21205;-75
2022/05/22 02:31:23;;;;;;;6.43;4.20;;;15.60;99.90;;;;;;5032296;28;20576;-75
2022/05/22 02:33:52;;;;;;;4.32;3.92;;;15.50;99.90;;;;;;5036413;28;20227;-75
2022/05/22 02:36:19;;;;;;;4.93;3.90;;;15.50;99.90;;;;;;5037223;28;20161;-75
2022/05/22 02:38:49;;;;;;;6.43;3.88;;;15.50;99.90;;;;;;5048455;28;20249;-75
2022/05/22 02:41:17;;;;;;;5.55;4.03;;;15.40;99.90;;;;;;5056122;28;20169;-75
2022/05/22 02:43:54;;;;;;;8.07;2.95;;;15.40;99.90;;;;;;5057170;28;20211;-75
2022/05/22 02:46:21;;;;;;;4.30;3.17;;;15.40;99.90;;;;;;5056978;28;20170;-75
2022/05/22 02:48:49;;;;;;;6.15;3.72;;;15.30;99.90;;;;;;5048119;28;20981;-75
2022/05/22 02:51:18;;;;;;;4.90;3.43;;;15.40;99.90;;;;;;5040591;28;20550;-74
2022/05/22 02:53:44;;;;;;;6.65;3.80;;;15.40;99.90;;;;;;5036764;28;20659;-74
2022/05/22 02:56:19;;;;;;;4.35;3.70;;;15.40;99.90;;;;;;5054454;28;20192;-74
2022/05/22 02:59:04;;;;;;;5.22;4.25;;;15.40;99.90;;;;;;5066114;28;20203;-74
2022/05/22 03:01:40;;;;;;;5.80;3.83;;;15.40;99.90;;;;;;5056596;28;20196;-74
2022/05/22 03:04:07;;;;;;;3.95;3.10;;;15.40;99.90;;;;;;5038498;28;20180;-74
2022/05/22 03:06:38;;;;;;;6.90;3.73;;;15.30;99.90;;;;;;5036573;28;20173;-74
2022/05/22 03:09:14;;;;;;;7.13;3.70;;;15.30;99.90;;;;;;5047712;28;20176;-74
2022/05/22 03:11:43;;;;;;;4.80;3.35;;;15.30;99.90;;;;;;5055710;28;20283;-74
2022/05/22 03:14:10;;;;;;;10.00;3.72;;;15.30;99.90;;;;;;5056328;28;20179;-74
2022/05/22 03:16:36;;;;;;;4.53;3.70;;;15.30;99.90;;;;;;5056104;28;20164;-74
2022/05/22 03:19:09;;;;;;;6.85;3.72;;;15.20;99.90;;;;;;5043114;28;20172;-74
2022/05/22 03:21:35;;;;;;;3.80;2.57;;;15.20;99.90;;;;;;5035613;28;20258;-73
2022/05/22 03:24:01;;;;;;;4.82;2.95;;;15.20;99.90;;;;;;5019902;28;20185;-74
2022/05/22 03:26:27;;;;;;;4.90;3.40;;;15.20;99.90;;;;;;5036021;28;20172;-74
2022/05/22 03:28:53;;;;;;;4.40;3.17;;;15.20;99.90;;;;;;5063441;28;20526;-74
2022/05/22 03:31:20;;;;;;;3.83;3.42;;;15.20;99.90;;;;;;5041161;28;21188;-74
2022/05/22 03:33:46;;;;;;;6.55;4.30;;;15.20;99.90;;;;;;5035877;28;20177;-74
2022/05/22 03:36:12;;;;;;;6.07;4.10;;;15.10;99.90;;;;;;5036207;28;20168;-74
2022/05/22 03:38:38;;;;;;;4.20;2.77;;;15.10;99.90;;;;;;5043358;28;20574;-74
2022/05/22 03:41:05;;;;;;;5.05;3.10;;;15.10;99.90;;;;;;5073266;28;20172;-74
2022/05/22 03:43:36;;;;;;;3.85;2.78;;;15.10;99.90;;;;;;5055540;28;20173;-74
2022/05/22 03:46:03;;;;;;;3.25;2.63;;;15.00;99.90;;;;;;5055584;28;20267;-74
2022/05/22 03:48:31;;;;;;;4.35;3.10;;;15.00;99.90;;;;;;5049638;28;20215;-75
2022/05/22 03:50:57;;;;;;;4.95;2.90;;;15.00;99.90;;;;;;5035086;28;20169;-74
2022/05/22 03:53:25;;;;;;;7.20;3.08;;;15.00;99.90;;;;;;5035579;28;20204;-74
2022/05/22 03:55:51;;;;;;;6.70;2.92;;;15.00;99.90;;;;;;5035869;28;20181;-74
2022/05/22 03:58:19;;;;;;;4.65;3.67;;;15.00;99.90;;;;;;5048418;22;20216;-78
2022/05/22 04:00:48;;;;;;;4.60;3.50;;;15.00;99.90;;;;;;5026303;28;20252;-79
2022/05/22 04:03:14;;;;;;;4.10;2.83;;;15.10;99.90;;;;;;5051369;28;20303;-78
2022/05/22 04:05:41;;;;;;;4.80;3.10;;;15.10;99.90;;;;;;5023713;28;21230;-78
2022/05/22 04:08:08;;;;;;;6.30;3.53;;;15.10;99.90;;;;;;5008695;28;20204;-78
2022/05/22 04:10:47;;;;;;;4.30;3.03;;;15.10;99.90;;;;;;5054822;28;20176;-78
2022/05/22 04:13:13;;;;;;;4.90;3.00;;;15.10;99.90;;;;;;5072218;28;20211;-78
2022/05/22 04:15:39;;;;;;;4.13;3.75;;;15.10;99.90;;;;;;5071777;28;20525;-78
2022/05/22 04:18:07;;;;;;;4.53;3.07;;;15.10;99.90;;;;;;5072687;28;20299;-77
2022/05/22 04:20:33;;;;;;;6.30;3.20;;;15.10;99.90;;;;;;5071245;28;20983;-77
2022/05/22 04:26:21;;;;;;;4.40;3.08;;;15.20;99.90;;;;;;5044227;28;20532;-78
2022/05/22 04:28:47;;;;;;;5.80;3.73;;;15.30;99.90;;;;;;5071551;28;20191;-78
2022/05/22 04:31:23;;;;;;;3.38;3.08;;;15.30;99.90;;;;;;5070859;28;20172;-78
2022/05/22 04:34:04;;;;;;;4.75;3.67;;;15.30;99.90;;;;;;5071990;28;20168;-78
2022/05/22 04:36:30;;;;;;;5.80;3.53;;;15.40;99.90;;;;;;5071642;28;20460;-78
2022/05/22 04:38:56;;;;;;;5.50;3.67;;;15.40;99.90;;;;;;5071320;28;20249;-78
2022/05/22 04:41:21;;;;;;;5.17;3.00;;;15.40;99.90;;;;;;5070770;28;20179;-78
2022/05/22 04:43:47;;;;;;;5.57;3.03;;;15.40;99.90;;;;;;5071299;28;20156;-78
2022/05/22 04:46:13;;;;;;;4.20;2.63;;;15.50;99.90;;;;;;5071207;28;20567;-78
2022/05/22 04:48:39;;;;;;;5.67;3.10;;;15.50;99.90;;;;;;5072272;28;20638;-77
2022/05/22 04:51:05;;;;;;;5.00;2.78;;;15.60;99.90;;;;;;5070618;28;20218;-78
2022/05/22 04:53:46;;;;;;;5.33;3.40;;;15.70;99.90;;;;;;5071208;28;20211;-78
2022/05/22 04:56:44;;;;;;;7.27;3.20;;;15.80;99.90;;;;;;5059636;28;20700;-78
2022/05/22 04:59:15;;;;;;;3.17;2.73;;;15.90;99.90;;;;;;5070151;28;20641;-77
2022/05/22 05:01:42;;;;;;;5.63;3.50;;;15.90;99.90;;;;;;5070526;28;20582;-78
2022/05/22 05:04:13;;;;;;;3.77;2.63;;;16.00;99.90;;;;;;5071238;28;20574;-78
2022/05/22 05:07:08;;;;;;;3.90;3.45;;;16.00;99.90;;;;;;5070676;28;20622;-78
2022/05/22 05:09:56;;;;;;;6.25;3.15;;;16.10;99.90;;;;;;5049830;28;20177;-78
2022/05/22 05:12:41;;;;;;;4.93;3.30;;;16.20;99.90;;;;;;5052217;28;20192;-78
2022/05/22 05:15:11;;;;;;;6.22;3.53;;;16.20;99.90;;;;;;5058509;28;20738;-78
2022/05/22 05:17:39;;;;;;;3.20;2.80;;;16.20;99.90;;;;;;5070652;28;20217;-78
2022/05/22 05:20:07;;;;;;;4.27;2.60;;;16.30;99.90;;;;;;5053421;28;21150;-78
2022/05/22 05:22:49;;;;;;;5.27;2.97;;;16.30;99.90;;;;;;5070107;28;20582;-79
2022/05/22 05:25:21;;;;;;;3.80;3.40;;;16.40;99.90;;;;;;5070637;28;20930;-78
2022/05/22 05:27:46;;;;;;;4.50;2.60;;;16.50;99.90;;;;;;5070278;28;20663;-78
2022/05/22 05:30:18;;;;;;;5.00;2.93;;;16.60;99.90;;;;;;5069795;28;20270;-78
2022/05/22 05:32:46;;;;;;;7.50;3.53;;;16.80;99.90;;;;;;5070157;28;21268;-77
2022/05/22 05:35:33;;;;;;;4.00;2.93;;;16.90;99.90;;;;;;5071434;28;20648;-79
2022/05/22 05:38:00;;;;;;;3.13;2.53;;;16.90;99.90;;;;;;5053333;28;21240;-78
2022/05/22 05:40:27;;;;;;;6.20;3.40;;;17.10;99.90;;;;;;5069704;28;20579;-78
2022/05/22 05:42:54;;;;;;;5.07;3.10;;;17.10;99.90;;;;;;5053407;28;20587;-77
2022/05/22 05:45:20;;;;;;;4.30;3.13;;;17.10;99.90;;;;;;5070355;28;20920;-78
2022/05/22 05:47:52;;;;;;;6.20;3.20;;;17.20;99.90;;;;;;5070488;28;20594;-79
2022/05/22 05:50:31;;;;;;;4.10;3.10;;;17.30;99.90;;;;;;5069725;28;20685;-77
2022/05/22 05:53:19;;;;;;;4.20;3.20;;;17.30;99.90;;;;;;5068295;28;20653;-77
2022/05/22 05:55:47;;;;;;;3.03;2.60;;;17.50;99.90;;;;;;5070073;28;20594;-77
2022/05/22 05:58:35;;;;;;;3.60;2.97;;;17.80;99.90;;;;;;5069860;28;20208;-78
2022/05/22 06:01:13;;;;;;;4.80;3.20;;;18.20;99.90;;;;;;5054000;28;20948;-87
2022/05/22 06:03:39;;;;;;;4.37;3.60;;;18.80;99.90;;;;;;5064380;28;20579;-88
2022/05/22 06:06:10;;;;;;;4.10;3.00;;;19.40;99.90;;;;;;5072909;28;20563;-87
2022/05/22 06:08:39;;;;;;;5.60;2.67;;;20.00;99.90;;;;;;5064250;28;20667;-87
2022/05/22 06:11:43;;;;;;;6.57;3.93;;;20.60;99.90;;;;;;4998835;28;20688;-86
2022/05/22 06:14:19;;;;;;;6.63;2.90;;;21.30;99.90;;;;;;4998097;28;20592;-87
2022/05/22 06:16:47;;;;;;;4.97;2.53;;;21.90;99.90;;;;;;5027157;28;20615;-87
2022/05/22 06:19:15;;;;;;;7.47;2.40;;;22.40;99.90;;;;;;5040777;28;20652;-88
2022/05/22 06:21:44;;;;;;;7.30;3.20;;;23.10;99.90;;;;;;5073905;28;20615;-86
2022/05/22 06:24:11;;;;;;;4.37;2.77;;;23.90;99.90;;;;;;5074407;28;20575;-87
2022/05/22 06:27:06;;;;;;;5.40;3.40;;;24.60;99.90;;;;;;5046159;28;20701;-86
2022/05/22 06:29:42;;;;;;;4.73;2.80;;;25.50;99.90;;;;;;5071272;28;20606;-85
2022/05/22 06:32:24;;;;;;;4.10;2.30;;;26.30;99.90;;;;;;5074323;28;20629;-81
2022/05/22 06:35:12;;;;;;;4.23;3.03;;;26.70;99.90;;;;;;5074439;28;20586;-83
2022/05/22 06:37:44;;;;;;;3.43;2.20;;;27.20;99.90;;;;;;5054114;28;21207;-84
2022/05/22 06:40:29;;;;;;;4.53;2.27;;;27.70;99.90;;;;;;5055389;28;20666;-83
2022/05/22 06:43:24;;;;;;;2.70;2.20;;;27.90;99.90;;;;;;5070284;28;20611;-84
2022/05/22 06:46:16;;;;;;;4.73;2.10;;;28.40;99.90;;;;;;5070896;28;21138;-84
2022/05/22 06:49:02;;;;;;;3.20;2.03;;;29.00;99.90;;;;;;5081259;28;20608;-84
2022/05/22 06:51:48;;;;;;;2.77;2.10;;;29.50;98.10;;;;;;5075800;28;21186;-84
2022/05/22 06:54:32;;;;;;;3.87;2.47;;;29.90;97.10;;;;;;5074982;28;20669;-84
2022/05/22 06:57:18;;;;;;;4.03;2.43;;;30.40;96.20;;;;;;5061052;28;20677;-84
2022/05/22 07:00:22;;;;;;;2.60;1.87;;;30.80;94.40;;;;;;5058461;28;21160;-82
2022/05/22 07:03:08;;;;;;;3.60;1.93;;;31.10;93.70;;;;;;5073740;28;20587;-80
2022/05/22 07:06:00;;;;;;;4.63;2.70;;;31.40;92.60;;;;;;5065229;28;20610;-81
2022/05/22 07:08:46;;;;;;;6.53;3.17;;;32.00;92.20;;;;;;5080132;28;20735;-82
2022/05/22 07:11:39;;;;;;;2.53;1.60;;;32.30;90.30;;;;;;5072606;28;20593;-82
2022/05/22 07:14:32;;;;;;;2.60;1.93;;;32.70;89.00;;;;;;5042938;28;20591;-82
2022/05/22 07:17:21;;;;;;;5.50;2.20;;;33.20;86.40;;;;;;5068255;28;20593;-81
2022/05/22 07:20:24;;;;;;;3.37;1.57;;;33.70;83.90;;;;;;4991988;28;20603;-81
2022/05/22 07:23:29;;;;;;;5.17;1.70;;;34.10;81.10;;;;;;5040690;28;20690;-81
2022/05/22 07:26:07;;;;;;;2.97;1.67;;;34.50;78.10;;;;;;5047229;28;20624;-82
2022/05/22 07:28:58;;;;;;;4.53;1.70;;;34.90;75.70;;;;;;5073042;28;21179;-81
2022/05/22 07:31:47;;;;;;;3.47;1.50;;;35.40;73.90;;;;;;5045023;28;21101;-82
2022/05/22 07:34:47;;;;;;;3.70;1.80;;;35.90;72.90;;;;;;5060159;28;21512;-81
2022/05/22 07:37:36;;;;;;;2.77;1.50;;;36.40;69.90;;;;;;5062169;28;20600;-79
2022/05/22 07:40:34;;;;;;;3.10;1.57;;;36.80;67.90;;;;;;5044872;28;20597;-79
2022/05/22 07:43:16;;;;;;;3.67;1.93;;;36.90;64.00;;;;;;5076690;28;20579;-82
2022/05/22 07:46:02;;;;;;;1.90;1.40;;;36.70;58.20;;;;;;5073630;28;20595;-80
2022/05/22 07:48:39;;;;;;;2.70;1.63;;;36.60;58.20;;;;;;5055259;28;20623;-80
2022/05/22 07:51:21;;;;;;;3.40;1.40;;;36.70;56.80;;;;;;5069477;28;20658;-79
2022/05/22 07:53:56;;;;;;;3.10;1.40;;;36.70;56.30;;;;;;5038399;28;20611;-81
2022/05/22 07:56:36;;;;;;;3.57;1.27;;;36.90;54.80;;;;;;5062837;28;20607;-79
2022/05/22 07:59:12;;;;;;;2.60;2.00;;;36.70;54.00;;;;;;5035366;28;20638;-79
2022/05/22 08:01:44;;;;;;;2.87;1.43;;;36.90;54.00;;;;;;5036013;28;20590;-81
2022/05/22 08:04:32;;;;;;;2.30;1.10;;;37.20;53.50;;;;;;5036034;28;21102;-79
2022/05/22 08:07:00;;;;;;;2.60;1.50;;;37.60;53.10;;;;;;5073572;28;20679;-79
2022/05/22 08:09:55;;;;;;;3.83;1.50;;;37.80;50.60;;;;;;5049626;28;20848;-80
2022/05/22 08:12:21;;;;;;;4.30;1.73;;;37.80;50.70;;;;;;5072247;28;21034;-80
2022/05/22 08:14:48;;;;;;;4.43;1.53;;;38.00;50.20;;;;;;5065234;28;20207;-79
2022/05/22 08:17:19;;;;;;;2.57;1.60;;;38.20;49.80;;;;;;5056120;28;20597;-79
2022/05/22 08:19:45;;;;;;;2.70;1.43;;;38.40;49.20;;;;;;5076774;28;20614;-81
2022/05/22 08:22:11;;;;;;;3.37;1.20;;;38.40;48.60;;;;;;5053953;28;20594;-80
2022/05/22 08:25:04;;;;;;;3.87;1.27;;;38.40;48.30;;;;;;5029452;28;20607;-79
2022/05/22 08:27:31;;;;;;;4.60;1.77;;;38.40;47.80;;;;;;5035477;28;20586;-80
2022/05/22 08:29:56;;;;;;;3.20;1.50;;;38.30;47.40;;;;;;5051042;28;20568;-79
2022/05/22 08:32:24;;;;;;;2.47;1.00;;;38.20;47.30;;;;;;5066639;28;20203;-80
2022/05/22 08:34:54;;;;;;;2.93;1.47;;;38.10;46.90;;;;;;5035592;28;20644;-82
2022/05/22 08:37:20;;;;;;;3.47;1.10;;;38.00;46.10;;;;;;5069113;28;20168;-83
2022/05/22 08:39:45;;;;;;;3.40;1.03;;;37.90;46.00;;;;;;5056807;28;20621;-81
2022/05/22 08:42:18;;;;;;;4.63;1.20;;;37.80;46.20;;;;;;5041107;28;20244;-81
2022/05/22 08:44:49;;;;;;;3.63;1.57;;;37.80;45.40;;;;;;5073249;28;20165;-79
2022/05/22 08:47:20;;;;;;;5.80;1.70;;;37.60;44.40;;;;;;5069353;28;21180;-78
2022/05/22 08:49:57;;;;;;;3.13;1.33;;;37.30;44.60;;;;;;5066253;28;20627;-77
2022/05/22 08:52:38;;;;;;;5.03;1.00;;;37.30;44.70;;;;;;5068330;28;20602;-76
2022/05/22 08:55:17;;;;;;;2.60;1.23;;;37.40;45.30;;;;;;5066417;28;20596;-76
2022/05/22 09:00:37;;;;;;;2.17;1.20;;;38.00;44.70;;;;;;5069975;28;20948;-75
2022/05/22 09:03:18;;;;;;;3.17;1.30;;;38.30;44.80;;;;;;5054315;28;20664;-75
2022/05/22 09:05:50;;;;;;;3.40;1.47;;;38.70;44.50;;;;;;5054110;28;20571;-75
2022/05/22 09:08:23;;;;;;;5.57;1.57;;;39.00;43.70;;;;;;5071085;28;20606;-75
2022/05/22 09:11:27;;;;;;;3.50;1.33;;;39.20;43.00;;;;;;5070542;28;20582;-77
2022/05/22 09:14:07;;;;;;;3.97;1.20;;;39.30;42.80;;;;;;5070989;28;20574;-77
2022/05/22 09:16:51;;;;;;;2.93;1.27;;;39.40;42.70;;;;;;5072369;28;20562;-77
2022/05/22 09:19:39;;;;;;;3.53;1.27;;;39.50;42.10;;;;;;5072057;28;20586;-78
2022/05/22 09:22:17;;;;;;;2.60;1.10;;;39.60;41.50;;;;;;5072909;28;20659;-76
2022/05/22 09:25:04;;;;;;;2.63;1.10;;;39.30;40.60;;;;;;5056105;28;20666;-78
2022/05/22 09:28:07;;;;;;;2.47;1.23;;;38.70;40.10;;;;;;5054133;28;20606;-78
2022/05/22 09:30:42;;;;;;;3.30;1.10;;;38.00;40.60;;;;;;5069941;28;20586;-78
2022/05/22 09:33:34;;;;;;;5.33;1.10;;;37.20;40.20;;;;;;5056742;28;20585;-78
2022/05/22 09:36:11;;;;;;;2.80;1.27;;;36.60;40.70;;;;;;5071136;28;21132;-77
2022/05/22 09:38:46;;;;;;;4.83;1.40;;;36.40;41.00;;;;;;5054750;28;20606;-77
2022/05/22 09:41:20;;;;;;;3.00;1.50;;;36.40;40.90;;;;;;5070542;28;20622;-77
2022/05/22 09:44:14;;;;;;;6.03;1.77;;;36.00;40.60;;;;;;5070985;28;20648;-77
2022/05/22 09:46:45;;;;;;;3.70;2.03;;;36.10;41.20;;;;;;5053839;28;20581;-78
2022/05/22 09:50:08;;;;;;;5.83;1.80;;;36.30;41.40;;;;;;5071511;28;20609;-77
2022/05/22 09:53:02;;;;;;;1.93;0.93;;;36.00;40.30;;;;;;4951506;29;20631;-77
2022/05/22 09:56:00;;;;;;;4.20;2.43;;;35.40;39.90;;;;;;4970343;28;20701;-77
2022/05/22 09:58:52;;;;;;;12.17;7.17;;;35.00;40.50;;;;;;5020868;28;20633;-77
2022/05/22 10:01:26;;;;;;;9.27;5.13;;;35.30;41.80;;;;;;5053391;23;20761;-77
2022/05/22 10:04:11;;;;;;;10.43;5.67;;;35.50;41.50;;;;;;5071286;28;20600;-77
2022/05/22 10:06:46;;;;;;;6.13;3.60;;;35.80;41.30;;;;;;5073732;28;20578;-78
2022/05/22 10:09:44;;;;;;;5.30;2.60;;;36.00;42.40;;;;;;5054278;28;20590;-77
2022/05/22 10:12:23;;;;;;;3.63;1.97;;;36.40;41.60;;;;;;5026725;28;20623;-77
2022/05/22 10:15:28;;;;;;;6.90;2.93;;;36.90;41.50;;;;;;5034307;28;20644;-77
2022/05/22 10:18:21;;;;;;;2.97;1.90;;;37.10;40.70;;;;;;5049947;28;20976;-78
2022/05/22 10:20:47;;;;;;;3.57;1.20;;;36.90;40.00;;;;;;5036324;28;20627;-77
2022/05/22 10:23:35;;;;;;;4.77;1.27;;;36.60;39.80;;;;;;5014606;28;21154;-77
2022/05/22 10:26:26;;;;;;;4.37;1.70;;;36.60;39.60;;;;;;5036979;28;20194;-81
2022/05/22 10:29:07;;;;;;;3.77;1.50;;;36.60;39.50;;;;;;5038546;28;20584;-81
2022/05/22 10:32:06;;;;;;;2.50;1.47;;;36.70;39.60;;;;;;5035130;28;20654;-81
2022/05/22 10:35:03;;;;;;;3.17;1.60;;;36.70;39.70;;;;;;5029652;28;20728;-79
2022/05/22 10:37:49;;;;;;;3.40;1.20;;;36.70;38.50;;;;;;5033145;28;20565;-78
2022/05/22 10:40:24;;;;;;;2.13;1.43;;;36.50;38.50;;;;;;5031290;28;20593;-79
2022/05/22 10:42:53;;;;;;;2.80;1.13;;;36.50;38.20;;;;;;5035154;28;20640;-78
2022/05/22 10:45:36;;;;;;;3.20;1.43;;;36.40;38.40;;;;;;5053013;28;20662;-78
2022/05/22 10:48:19;;;;;;;3.10;1.50;;;36.50;38.90;;;;;;5052773;28;20571;-78
2022/05/22 10:51:05;;;;;;;3.07;1.30;;;36.70;39.20;;;;;;5031171;28;20670;-78
2022/05/22 10:53:45;;;;;;;2.70;0.97;;;36.70;38.50;;;;;;5016767;28;20584;-80
2022/05/22 10:56:14;;;;;;;2.70;1.20;;;36.90;39.00;;;;;;5019265;28;20576;-79
2022/05/22 10:58:59;;;;;;;4.33;1.13;;;36.90;38.40;;;;;;5003194;28;20585;-79
2022/05/22 11:01:28;;;;;;;2.37;1.23;;;36.80;37.40;;;;;;5046394;28;20639;-80
2022/05/22 11:04:10;;;;;;;2.70;0.90;;;36.10;36.70;;;;;;5054870;28;21164;-80
2022/05/22 11:06:39;;;;;;;3.20;1.50;;;35.70;37.30;;;;;;5058461;28;20625;-79
2022/05/22 11:09:06;;;;;;;3.87;1.50;;;35.50;38.30;;;;;;5055234;28;20662;-78
2022/05/22 11:11:35;;;;;;;3.03;1.47;;;35.40;38.80;;;;;;5055459;28;20598;-78
2022/05/22 11:14:13;;;;;;;2.50;1.37;;;35.40;38.70;;;;;;5043414;28;20594;-78
2022/05/22 11:16:40;;;;;;;3.00;1.30;;;35.30;39.00;;;;;;5035030;28;20611;-79
2022/05/22 11:19:06;;;;;;;3.40;1.20;;;35.50;39.50;;;;;;5035721;28;20576;-79
2022/05/22 11:21:35;;;;;;;2.07;1.10;;;35.60;39.40;;;;;;5018508;28;20654;-79
2022/05/22 11:24:25;;;;;;;3.70;1.10;;;35.70;38.70;;;;;;5055754;28;20183;-79
2022/05/22 11:27:06;;;;;;;3.97;1.13;;;35.70;37.80;;;;;;5038509;28;20645;-78
2022/05/22 11:29:31;;;;;;;2.90;1.60;;;35.80;37.60;;;;;;5037909;28;20585;-78
2022/05/22 11:32:38;;;;;;;2.50;1.17;;;35.90;37.90;;;;;;5037736;28;20710;-80
2022/05/22 11:35:04;;;;;;;4.03;1.30;;;35.80;37.90;;;;;;5053234;28;20173;-78
2022/05/22 11:37:52;;;;;;;3.27;1.57;;;35.80;37.90;;;;;;5034845;28;20932;-79
2022/05/22 11:40:33;;;;;;;1.70;0.87;;;35.80;37.60;;;;;;5051678;28;20173;-79
2022/05/22 11:43:35;;;;;;;2.53;1.20;;;35.80;37.80;;;;;;5052579;28;20626;-80
2022/05/22 11:46:13;;;;;;;2.13;1.47;;;35.40;35.00;;;;;;5041266;28;20578;-80
2022/05/22 11:48:50;;;;;;;2.57;1.40;;;35.00;35.70;;;;;;5043953;28;20587;-84
2022/05/22 11:51:23;;;;;;;3.00;1.23;;;34.40;35.50;;;;;;5033822;28;21032;-78
2022/05/22 11:54:19;;;;;;;3.93;1.33;;;33.70;35.00;;;;;;5036906;28;20663;-78
2022/05/22 11:56:57;;;;;;;1.77;0.80;;;33.50;36.90;;;;;;5024682;28;20575;-79
2022/05/22 11:59:33;;;;;;;2.03;0.90;;;33.40;36.30;;;;;;5048781;28;20645;-79
2022/05/22 12:02:35;;;;;;;1.97;1.03;;;33.30;36.10;;;;;;5028678;28;20641;-79
2022/05/22 12:05:11;;;;;;;2.87;1.10;;;33.20;36.50;;;;;;5045585;28;20567;-79
2022/05/22 12:07:49;;;;;;;2.33;1.00;;;33.20;37.00;;;;;;5046302;28;20626;-79
2022/05/22 12:10:30;;;;;;;1.70;0.80;;;33.10;36.40;;;;;;5031732;28;20579;-78
2022/05/22 12:13:05;;;;;;;2.30;0.97;;;33.10;36.50;;;;;;5031884;28;20621;-81
2022/05/22 12:15:44;;;;;;;1.87;0.80;;;33.20;36.60;;;;;;5038230;28;20569;-79
2022/05/22 12:18:18;;;;;;;2.27;1.17;;;33.20;36.00;;;;;;5021076;28;20578;-79
2022/05/22 12:20:54;;;;;;;2.67;1.07;;;33.20;36.30;;;;;;5026693;28;20567;-80
2022/05/22 12:23:46;;;;;;;1.80;0.87;;;33.20;36.30;;;;;;5024983;28;20616;-80
2022/05/22 12:26:13;;;;;;;2.77;0.70;;;33.10;35.60;;;;;;5029098;28;20610;-80
2022/05/22 12:28:57;;;;;;;2.70;0.80;;;33.10;35.90;;;;;;5024704;28;20566;-80
2022/05/22 12:31:28;;;;;;;2.37;0.83;;;32.90;35.40;;;;;;5025310;28;20988;-80
2022/05/22 12:34:01;;;;;;;2.30;0.90;;;32.90;35.70;;;;;;5039229;28;20690;-81
2022/05/22 12:36:29;;;;;;;1.50;0.80;;;32.80;35.90;;;;;;5042902;28;20581;-80
2022/05/22 12:39:10;;;;;;;2.80;0.87;;;32.60;35.30;;;;;;5045199;28;20927;-80
2022/05/22 12:42:03;;;;;;;2.30;0.90;;;32.40;34.40;;;;;;5042008;28;20612;-80
2022/05/22 12:44:29;;;;;;;4.30;0.83;;;32.20;34.60;;;;;;5041751;28;20583;-80
2022/05/22 12:46:57;;;;;;;3.97;2.13;;;32.00;34.60;;;;;;5040574;28;20590;-81
2022/05/22 12:49:32;;;;;;;2.60;1.50;;;31.70;34.70;;;;;;5032603;28;20575;-80
2022/05/22 12:52:01;;;;;;;2.97;1.43;;;31.40;34.20;;;;;;5016430;28;20610;-81
2022/05/22 12:54:32;;;;;;;3.43;1.40;;;31.10;34.50;;;;;;5033310;28;20569;-82
2022/05/22 12:57:30;;;;;;;2.73;1.00;;;30.70;34.30;;;;;;5033182;28;20971;-81
2022/05/22 13:00:12;;;;;;;2.63;0.80;;;30.00;34.40;;;;;;4998909;28;20692;-81
2022/05/22 13:02:44;;;;;;;2.10;0.90;;;29.70;33.90;;;;;;5032605;28;21458;-81
2022/05/22 13:05:27;;;;;;;2.00;0.93;;;29.30;33.30;;;;;;5033624;28;20580;-80
2022/05/22 13:07:53;;;;;;;2.60;1.00;;;28.90;33.70;;;;;;4999063;28;20579;-81
2022/05/22 13:10:31;;;;;;;2.93;1.13;;;28.70;33.80;;;;;;5033360;28;20573;-80
2022/05/22 13:13:04;;;;;;;2.83;1.00;;;28.50;34.00;;;;;;5032393;28;20599;-80
2022/05/22 13:15:32;;;;;;;3.10;1.20;;;28.20;34.30;;;;;;5032059;28;20572;-81
2022/05/22 13:18:12;;;;;;;2.00;1.00;;;27.90;34.50;;;;;;5032474;28;20588;-81
2022/05/22 13:20:37;;;;;;;2.70;1.30;;;27.70;35.40;;;;;;5015953;28;20575;-81
2022/05/22 13:23:26;;;;;;;2.10;1.17;;;27.60;35.60;;;;;;5034890;28;20615;-82
2022/05/22 13:26:01;;;;;;;1.97;1.00;;;27.50;36.10;;;;;;5016748;28;20224;-81
2022/05/22 13:28:39;;;;;;;3.70;1.17;;;27.50;36.90;;;;;;5033771;28;20671;-80
2022/05/22 13:31:08;;;;;;;3.43;1.00;;;27.50;37.20;;;;;;5032598;28;20703;-81
2022/05/22 13:33:49;;;;;;;2.07;1.20;;;27.50;37.50;;;;;;5032935;28;20569;-81